Time;durP1;ratioP1;P1;durP2;ratioP2;P2;SDS_P1;SDS_P2;PMS_P1;PMS_P2;Temp;Humidity;BMP_temperature;BMP_pressure;BME280_temperature;BME280_humidity;BME280_pressure;Samples;Min_cycle;Max_cycle;Signal;HPM_P1;HPM_P2
2021/06/01 05:02:35;;;;;;;5.07;3.03;;;11.10;93.40;;;;;;5023891;23;20080;-80
2021/06/01 05:05:02;;;;;;;4.85;3.30;;;11.00;93.70;;;;;;5015755;28;20132;-80
2021/06/01 05:07:28;;;;;;;5.15;3.20;;;11.00;94.10;;;;;;5015899;28;20073;-80
2021/06/01 05:10:00;;;;;;;5.07;3.15;;;11.10;93.90;;;;;;5015694;28;20133;-81
2021/06/01 05:12:27;;;;;;;4.10;3.00;;;11.20;93.80;;;;;;5016066;28;20050;-80
2021/06/01 05:14:53;;;;;;;5.50;3.53;;;11.20;93.80;;;;;;5015624;28;20477;-80
2021/06/01 05:17:20;;;;;;;5.38;3.70;;;11.20;93.80;;;;;;5015685;28;20510;-81
2021/06/01 05:19:48;;;;;;;5.38;3.83;;;11.30;93.50;;;;;;4996792;28;20081;-80
2021/06/01 05:22:16;;;;;;;5.18;3.20;;;11.30;93.50;;;;;;5015566;28;20120;-80
2021/06/01 05:24:43;;;;;;;4.63;3.10;;;11.30;93.90;;;;;;5015828;28;20417;-80
2021/06/01 05:27:10;;;;;;;5.32;3.50;;;11.30;93.80;;;;;;5015485;28;20133;-80
2021/06/01 05:29:40;;;;;;;5.30;3.30;;;11.40;94.00;;;;;;5023538;23;20136;-79
2021/06/01 05:32:23;;;;;;;5.25;3.45;;;11.40;94.00;;;;;;4998914;28;20053;-79
2021/06/01 05:34:58;;;;;;;5.28;3.50;;;11.50;94.00;;;;;;5015248;28;20100;-80
2021/06/01 05:37:28;;;;;;;4.90;3.00;;;11.60;94.20;;;;;;5015524;28;20046;-79
2021/06/01 05:39:55;;;;;;;7.25;3.53;;;11.60;94.00;;;;;;5015116;28;20561;-79
2021/06/01 05:42:22;;;;;;;5.28;3.55;;;11.70;94.00;;;;;;5015347;28;20049;-79
2021/06/01 05:44:49;;;;;;;5.35;3.30;;;11.80;94.40;;;;;;5015194;28;20505;-79
2021/06/01 05:47:15;;;;;;;5.47;3.53;;;11.90;94.40;;;;;;5015111;28;20462;-79
2021/06/01 05:49:42;;;;;;;5.30;3.47;;;12.00;94.30;;;;;;5014955;28;20137;-79
2021/06/01 05:52:11;;;;;;;4.93;3.50;;;12.10;93.90;;;;;;5015175;28;20139;-79
2021/06/01 05:54:38;;;;;;;4.85;3.35;;;12.10;93.80;;;;;;5014935;28;20143;-79
2021/06/01 05:57:07;;;;;;;5.25;3.45;;;12.20;93.60;;;;;;5014902;28;20077;-79
2021/06/01 05:59:34;;;;;;;6.80;3.50;;;12.30;93.50;;;;;;5015210;28;20499;-79
2021/06/01 06:02:00;;;;;;;6.60;3.00;;;12.30;93.70;;;;;;5014704;28;20081;-79
2021/06/01 06:04:27;;;;;;;5.07;3.58;;;12.40;93.60;;;;;;5014729;28;20129;-79
2021/06/01 06:06:54;;;;;;;6.93;3.63;;;12.50;93.40;;;;;;5014778;28;20092;-79
2021/06/01 06:09:21;;;;;;;5.15;3.67;;;12.60;93.10;;;;;;5014723;28;20080;-79
2021/06/01 06:11:48;;;;;;;5.70;3.83;;;12.70;92.90;;;;;;5014413;28;20112;-80
2021/06/01 06:14:15;;;;;;;6.15;3.70;;;12.70;92.70;;;;;;5014518;28;20082;-79
2021/06/01 06:16:46;;;;;;;6.22;3.70;;;12.80;92.70;;;;;;4997079;28;20137;-80
2021/06/01 06:19:13;;;;;;;6.75;3.30;;;12.90;92.60;;;;;;5014456;28;20498;-79
2021/06/01 06:21:40;;;;;;;5.60;4.00;;;13.00;92.50;;;;;;5014481;28;20081;-80
2021/06/01 06:24:07;;;;;;;6.45;4.00;;;13.00;92.30;;;;;;5014441;28;20089;-80
2021/06/01 06:26:35;;;;;;;6.13;3.80;;;13.00;92.10;;;;;;5014391;28;20502;-79
2021/06/01 06:29:02;;;;;;;5.45;3.78;;;13.00;92.20;;;;;;5013965;28;20583;-79
2021/06/01 06:31:28;;;;;;;6.20;3.45;;;13.10;92.30;;;;;;5013864;28;20515;-79
2021/06/01 06:33:55;;;;;;;5.38;3.47;;;13.10;92.40;;;;;;5014091;28;20538;-79
2021/06/01 06:36:21;;;;;;;6.38;3.50;;;13.20;92.60;;;;;;5014244;28;20077;-80
2021/06/01 06:38:48;;;;;;;6.60;4.07;;;13.30;92.40;;;;;;5014011;28;20088;-79
2021/06/01 06:41:15;;;;;;;8.63;4.13;;;13.40;92.20;;;;;;5013938;28;20129;-79
2021/06/01 06:43:49;;;;;;;6.13;3.72;;;13.50;92.10;;;;;;5013961;28;20057;-80
2021/06/01 06:46:18;;;;;;;6.03;3.42;;;13.50;92.10;;;;;;5014164;28;20141;-80
2021/06/01 06:48:44;;;;;;;6.63;3.47;;;13.60;92.10;;;;;;5013993;28;20557;-79
2021/06/01 06:51:14;;;;;;;8.07;3.75;;;13.70;91.70;;;;;;5013985;28;20093;-79
2021/06/01 06:53:50;;;;;;;6.50;4.07;;;13.80;91.90;;;;;;5013717;28;20054;-80
2021/06/01 06:56:17;;;;;;;5.70;3.22;;;13.90;91.70;;;;;;5013768;28;20046;-79
2021/06/01 06:58:45;;;;;;;6.28;3.00;;;14.00;91.60;;;;;;5013874;28;20092;-79
2021/06/01 07:01:12;;;;;;;6.25;3.35;;;14.10;91.80;;;;;;5013628;28;20537;-78
2021/06/01 07:03:39;;;;;;;7.25;3.75;;;14.20;91.40;;;;;;5013302;28;20076;-78
2021/06/01 07:06:06;;;;;;;5.82;3.30;;;14.30;91.40;;;;;;5013759;28;20124;-78
2021/06/01 07:08:34;;;;;;;7.60;3.65;;;14.40;91.70;;;;;;5013527;28;20130;-79
2021/06/01 07:11:04;;;;;;;8.27;3.80;;;14.50;91.20;;;;;;5013967;28;20053;-79
2021/06/01 07:13:42;;;;;;;6.40;3.80;;;14.60;91.10;;;;;;5013558;28;20049;-79
2021/06/01 07:16:11;;;;;;;5.63;3.30;;;14.70;91.00;;;;;;5013479;28;20049;-79
2021/06/01 07:18:40;;;;;;;5.07;3.22;;;14.80;91.00;;;;;;5013361;28;20460;-79
2021/06/01 07:21:07;;;;;;;5.20;3.13;;;14.90;91.10;;;;;;5013452;28;20050;-79
2021/06/01 07:23:35;;;;;;;5.15;2.58;;;15.00;91.10;;;;;;5013329;28;20149;-78
2021/06/01 07:26:01;;;;;;;4.82;2.55;;;15.20;90.80;;;;;;5013339;28;20437;-79
2021/06/01 07:28:28;;;;;;;4.55;2.58;;;15.30;90.50;;;;;;5013495;28;20132;-78
2021/06/01 07:30:55;;;;;;;5.20;2.38;;;15.50;90.00;;;;;;5013172;28;20054;-78
2021/06/01 07:33:23;;;;;;;4.78;1.98;;;15.60;89.90;;;;;;5013287;28;20136;-79
2021/06/01 07:35:49;;;;;;;3.75;2.10;;;15.70;89.60;;;;;;5013258;28;20442;-79
2021/06/01 07:38:16;;;;;;;4.45;1.80;;;15.80;88.70;;;;;;5013176;28;20578;-79
2021/06/01 07:40:43;;;;;;;5.57;2.70;;;16.00;88.40;;;;;;4995829;28;20092;-79
2021/06/01 07:43:09;;;;;;;3.65;2.00;;;16.10;84.10;;;;;;4995028;28;20077;-79
2021/06/01 07:45:36;;;;;;;4.15;1.90;;;16.30;79.10;;;;;;5013399;28;20060;-79
2021/06/01 07:48:04;;;;;;;3.80;1.98;;;16.40;71.30;;;;;;5013025;28;20057;-79
2021/06/01 07:50:32;;;;;;;3.28;1.60;;;16.50;69.50;;;;;;5013361;28;20125;-79
2021/06/01 07:52:59;;;;;;;3.63;1.63;;;16.70;67.60;;;;;;5013057;28;20046;-81
2021/06/01 07:55:25;;;;;;;3.45;1.60;;;16.90;66.10;;;;;;5013201;28;20483;-79
2021/06/01 07:57:52;;;;;;;3.60;1.60;;;17.00;65.20;;;;;;5013107;28;20318;-79
2021/06/01 08:00:22;;;;;;;2.88;1.60;;;17.20;63.10;;;;;;5013301;28;20513;-80
2021/06/01 08:02:48;;;;;;;3.45;1.55;;;17.30;61.70;;;;;;4995655;28;20050;-80
2021/06/01 08:05:16;;;;;;;3.08;1.40;;;17.40;60.60;;;;;;5013203;28;20101;-80
2021/06/01 08:07:46;;;;;;;3.40;1.92;;;17.50;60.10;;;;;;5012864;28;20086;-79
2021/06/01 08:10:15;;;;;;;3.95;1.85;;;17.60;59.60;;;;;;5012977;28;20050;-80
2021/06/01 08:12:42;;;;;;;3.20;1.25;;;17.70;58.50;;;;;;5012982;28;20100;-80
2021/06/01 08:15:10;;;;;;;3.05;1.75;;;17.80;59.00;;;;;;5012698;28;20081;-79
2021/06/01 08:17:37;;;;;;;3.67;1.60;;;17.90;57.70;;;;;;5012791;28;20403;-80
2021/06/01 08:20:12;;;;;;;3.35;1.30;;;18.00;57.10;;;;;;4995317;28;20042;-80
2021/06/01 08:22:39;;;;;;;3.20;1.58;;;18.00;56.30;;;;;;5012977;28;20176;-80
2021/06/01 08:25:10;;;;;;;3.40;1.70;;;18.10;55.30;;;;;;5012693;28;20058;-80
2021/06/01 08:27:37;;;;;;;4.70;1.90;;;18.20;55.10;;;;;;5012781;28;20050;-79
2021/06/01 08:30:06;;;;;;;3.80;1.42;;;18.20;54.40;;;;;;5012451;28;20081;-80
2021/06/01 08:32:33;;;;;;;3.42;1.50;;;18.30;54.40;;;;;;5012748;28;20054;-80
2021/06/01 08:35:00;;;;;;;2.85;1.30;;;18.40;54.30;;;;;;5012775;28;20478;-80
2021/06/01 08:37:26;;;;;;;3.13;1.50;;;18.50;54.40;;;;;;5012511;28;20143;-80
2021/06/01 08:39:53;;;;;;;4.30;1.83;;;18.60;55.00;;;;;;4995069;28;20050;-80
2021/06/01 08:42:22;;;;;;;3.38;1.80;;;18.60;53.70;;;;;;5012511;28;20132;-80
2021/06/01 08:44:49;;;;;;;2.88;1.38;;;18.70;54.10;;;;;;5012655;28;20100;-80
2021/06/01 08:47:18;;;;;;;4.35;1.65;;;18.80;53.10;;;;;;5012584;28;20088;-80
2021/06/01 08:49:46;;;;;;;3.28;1.50;;;18.90;52.10;;;;;;5012672;28;20100;-80
2021/06/01 08:52:14;;;;;;;3.65;1.80;;;18.90;50.50;;;;;;5012455;28;20049;-80
2021/06/01 08:54:41;;;;;;;3.22;1.45;;;19.00;49.40;;;;;;5013827;28;20141;-80
2021/06/01 08:57:08;;;;;;;3.42;1.35;;;19.00;49.00;;;;;;5016226;28;20129;-79
2021/06/01 08:59:40;;;;;;;3.15;1.40;;;19.00;49.70;;;;;;5015954;28;20550;-79
2021/06/01 09:02:07;;;;;;;3.35;1.40;;;19.10;49.80;;;;;;5016377;28;20058;-79
2021/06/01 09:04:50;;;;;;;3.70;1.50;;;19.10;49.00;;;;;;5015786;28;20141;-80
2021/06/01 09:07:26;;;;;;;2.72;1.35;;;19.20;49.10;;;;;;5015750;28;20049;-80
2021/06/01 09:13:27;;;;;;;3.47;1.42;;;19.30;49.00;;;;;;5005159;28;20050;-80
2021/06/01 09:21:42;;;;;;;2.70;1.40;;;19.60;48.10;;;;;;5015615;28;20057;-80
2021/06/01 09:24:09;;;;;;;2.90;1.42;;;19.60;47.40;;;;;;5015467;28;20057;-80
2021/06/01 09:26:54;;;;;;;4.47;1.90;;;19.70;46.90;;;;;;5015382;28;20398;-80
2021/06/01 09:29:21;;;;;;;2.35;1.15;;;19.70;46.20;;;;;;5015161;28;20082;-79
2021/06/01 09:32:05;;;;;;;4.72;1.70;;;19.70;46.10;;;;;;5015353;28;20081;-80
2021/06/01 09:34:39;;;;;;;3.70;1.55;;;19.70;45.80;;;;;;5015174;28;20133;-80
2021/06/01 09:37:34;;;;;;;2.65;1.30;;;19.70;45.00;;;;;;5015719;28;20038;-80
2021/06/01 09:40:18;;;;;;;3.35;1.50;;;19.70;45.40;;;;;;5015344;28;20050;-80
2021/06/01 09:42:46;;;;;;;3.60;1.75;;;19.80;46.90;;;;;;5015136;28;20133;-79
2021/06/01 09:45:17;;;;;;;3.10;1.40;;;19.80;45.80;;;;;;5013834;28;20050;-80
2021/06/01 09:47:52;;;;;;;2.67;1.40;;;19.90;45.70;;;;;;5015280;28;20060;-80
2021/06/01 09:50:37;;;;;;;3.63;1.50;;;19.90;45.80;;;;;;5015228;28;20057;-80
2021/06/01 09:53:07;;;;;;;3.63;1.67;;;19.90;45.60;;;;;;5015221;28;20140;-80
2021/06/01 09:55:47;;;;;;;3.75;1.75;;;19.90;46.10;;;;;;5014885;28;20053;-80
2021/06/01 09:58:16;;;;;;;3.60;1.30;;;20.00;46.40;;;;;;5014998;28;20137;-80
2021/06/01 10:00:44;;;;;;;2.60;1.25;;;20.00;46.80;;;;;;5015045;28;20057;-80
2021/06/01 10:03:17;;;;;;;4.20;1.40;;;20.00;46.40;;;;;;5014636;28;20483;-80
2021/06/01 10:05:45;;;;;;;3.00;1.23;;;20.10;46.50;;;;;;5013873;28;20050;-80
2021/06/01 10:08:14;;;;;;;2.85;1.55;;;20.20;46.90;;;;;;5014894;28;20073;-80
2021/06/01 10:10:50;;;;;;;2.88;1.33;;;20.20;45.50;;;;;;5014737;28;20137;-80
2021/06/01 10:13:20;;;;;;;2.20;1.02;;;20.20;45.70;;;;;;5014428;28;20459;-79
2021/06/01 10:15:47;;;;;;;2.90;1.20;;;20.20;46.10;;;;;;5014394;28;20100;-80
2021/06/01 10:18:18;;;;;;;3.53;1.30;;;20.30;46.50;;;;;;5014340;28;20049;-80
2021/06/01 10:20:47;;;;;;;3.70;1.42;;;20.40;47.20;;;;;;5014536;28;20053;-80
2021/06/01 10:23:18;;;;;;;2.72;1.50;;;20.40;45.60;;;;;;5014560;28;20049;-80
2021/06/01 10:25:45;;;;;;;2.40;1.20;;;20.40;45.90;;;;;;5014255;28;20447;-80
2021/06/01 10:28:12;;;;;;;4.88;1.60;;;20.40;45.90;;;;;;5014201;28;20057;-80
2021/06/01 10:30:41;;;;;;;2.80;1.35;;;20.50;46.30;;;;;;5013963;28;20089;-79
2021/06/01 10:33:11;;;;;;;2.90;1.40;;;20.50;46.20;;;;;;5014386;28;20088;-80
2021/06/01 10:35:47;;;;;;;3.58;1.50;;;20.60;46.00;;;;;;5014320;28;20124;-80
2021/06/01 10:44:45;;;;;;;3.78;1.80;;;20.80;46.70;;;;;;5014147;28;20060;-80
2021/06/01 10:50:30;;;;;;;2.60;1.27;;;20.90;46.00;;;;;;5013972;28;20096;-79
2021/06/01 10:53:15;;;;;;;2.55;1.13;;;21.00;45.90;;;;;;5013917;28;20050;-80
2021/06/01 10:56:04;;;;;;;4.00;1.33;;;21.00;45.80;;;;;;5013749;28;20516;-80
2021/06/01 10:59:08;;;;;;;3.50;1.35;;;21.00;45.20;;;;;;5013829;28;20050;-80
2021/06/01 11:04:23;;;;;;;3.22;1.20;;;21.10;45.90;;;;;;5013712;28;20061;-80
2021/06/01 11:07:25;;;;;;;3.90;1.70;;;21.20;45.70;;;;;;5014107;28;20054;-80
2021/06/01 11:09:53;;;;;;;3.13;1.52;;;21.20;45.60;;;;;;5013772;28;20106;-80
2021/06/01 11:12:44;;;;;;;2.70;1.20;;;21.40;45.80;;;;;;5013434;28;20057;-80
2021/06/01 11:15:32;;;;;;;2.13;1.20;;;21.40;45.80;;;;;;5013174;28;20092;-79
2021/06/01 11:18:24;;;;;;;2.63;1.38;;;21.50;46.10;;;;;;5013419;28;20053;-80
2021/06/01 11:21:17;;;;;;;3.17;1.30;;;21.50;45.30;;;;;;5013363;28;20506;-79
2021/06/01 11:35:38;;;;;;;4.03;1.42;;;21.80;46.60;;;;;;4995483;28;20042;-80
2021/06/01 11:38:10;;;;;;;2.85;1.70;;;21.80;46.60;;;;;;5013287;28;20049;-80
2021/06/01 11:40:40;;;;;;;2.40;1.20;;;21.80;46.80;;;;;;5013259;28;20407;-80
2021/06/01 11:43:10;;;;;;;3.35;1.58;;;21.80;47.40;;;;;;5013236;28;20128;-79
2021/06/01 11:45:49;;;;;;;3.55;1.30;;;21.90;47.30;;;;;;5013121;28;20054;-80
2021/06/01 11:48:30;;;;;;;2.90;1.55;;;21.90;47.60;;;;;;5013097;28;20155;-80
2021/06/01 11:51:14;;;;;;;2.83;1.35;;;22.00;48.00;;;;;;5013193;28;20049;-80
2021/06/01 11:53:54;;;;;;;3.10;1.45;;;22.10;48.30;;;;;;5012993;28;20081;-80
2021/06/01 11:57:11;;;;;;;6.15;2.60;;;22.20;48.40;;;;;;5013004;28;20081;-80
2021/06/01 12:02:54;;;;;;;3.38;1.50;;;22.30;47.80;;;;;;5012926;28;20053;-80
2021/06/01 12:11:11;;;;;;;3.22;1.70;;;22.40;47.80;;;;;;4999537;28;20056;-79
2021/06/01 12:11:20;;;;;;;5.40;1.70;;;22.70;48.10;;;;;;5012873;28;20056;-81
2021/06/01 12:13:58;;;;;;;3.28;1.67;;;22.70;46.10;;;;;;5012749;28;20050;-80
2021/06/01 12:19:12;;;;;;;3.97;1.77;;;22.90;45.20;;;;;;5012850;28;20057;-80
2021/06/01 12:21:41;;;;;;;2.90;1.48;;;22.90;44.40;;;;;;5012679;28;20076;-80
2021/06/01 12:24:12;;;;;;;2.47;1.30;;;23.00;43.50;;;;;;5012804;28;20082;-80
2021/06/01 12:26:47;;;;;;;3.10;1.60;;;23.10;45.10;;;;;;5012742;28;20076;-80
2021/06/01 12:32:08;;;;;;;2.63;1.38;;;23.30;43.10;;;;;;5016620;28;20104;-79
2021/06/01 12:35:01;;;;;;;2.90;1.50;;;23.40;43.30;;;;;;5016510;28;20046;-80
2021/06/01 12:43:12;;;;;;;2.67;1.45;;;23.70;43.40;;;;;;5016360;28;20100;-80
2021/06/01 13:09:27;;;;;;;2.53;1.27;;;24.80;42.60;;;;;;5015909;28;20696;-81
2021/06/01 13:12:27;;;;;;;3.05;1.50;;;25.00;42.10;;;;;;5015904;28;20049;-79
2021/06/01 13:20:32;;;;;;;3.45;1.30;;;25.30;40.40;;;;;;5015604;28;20076;-80
2021/06/01 13:32:08;;;;;;;3.38;1.55;;;25.80;39.70;;;;;;5015390;28;20411;-80
2021/06/01 13:40:17;;;;;;;2.30;1.30;;;26.10;39.60;;;;;;4992127;28;20042;-80
2021/06/01 13:51:25;;;;;;;2.67;1.20;;;26.40;38.60;;;;;;4998189;28;20046;-80
2021/06/01 13:56:38;;;;;;;2.53;1.10;;;26.70;38.50;;;;;;5014496;28;20458;-80
2021/06/01 13:59:08;;;;;;;2.65;1.30;;;26.70;37.50;;;;;;5012872;28;20042;-80
2021/06/01 14:01:56;;;;;;;2.70;1.20;;;26.80;37.30;;;;;;5012043;28;20054;-80
2021/06/01 14:10:24;;;;;;;2.83;1.25;;;27.00;37.80;;;;;;4990339;28;20582;-80
2021/06/01 14:19:22;;;;;;;3.33;1.20;;;27.40;38.90;;;;;;4979112;28;20061;-80
2021/06/01 14:21:15;;;;;;;3.95;1.30;;;27.50;36.90;;;;;;5012223;28;20415;-80
2021/06/01 14:29:47;;;;;;;8.55;1.40;;;28.20;37.60;;;;;;5011994;28;20461;-80
2021/06/01 15:11:37;;;;;;;3.20;1.58;;;30.10;34.70;;;;;;5010531;28;20072;-79
2021/06/01 15:47:48;;;;;;;3.67;1.35;;;31.70;33.00;;;;;;4971339;28;20137;-77
2021/06/01 16:13:24;;;;;;;3.13;1.48;;;32.40;31.30;;;;;;5011781;28;20123;-79
2021/06/01 16:21:28;;;;;;;3.22;1.30;;;32.20;32.00;;;;;;5012046;28;20053;-80
2021/06/01 16:29:42;;;;;;;2.80;1.40;;;31.90;31.80;;;;;;4998400;28;20111;-80
2021/06/01 16:32:23;;;;;;;3.03;1.50;;;31.90;31.80;;;;;;5009462;28;20052;-79
2021/06/01 17:05:35;;;;;;;3.38;1.08;;;31.10;33.10;;;;;;5011552;28;20617;-80
2021/06/01 17:11:05;;;;;;;3.20;1.38;;;30.70;32.60;;;;;;4964716;28;20367;-78
2021/06/01 17:13:42;;;;;;;2.38;1.20;;;30.60;32.70;;;;;;5004208;28;20050;-77
2021/06/01 17:16:16;;;;;;;3.50;1.30;;;30.50;33.00;;;;;;5010931;28;20045;-78
2021/06/01 17:35:29;;;;;;;3.42;1.20;;;29.50;34.00;;;;;;5006785;28;20073;-79
2021/06/01 17:37:55;;;;;;;2.70;1.20;;;29.40;34.00;;;;;;5003079;28;20133;-81
2021/06/01 17:40:23;;;;;;;2.50;1.10;;;29.30;34.40;;;;;;5010395;28;20121;-82
2021/06/01 17:42:52;;;;;;;2.88;1.20;;;29.20;34.50;;;;;;5007600;28;20042;-79
2021/06/01 17:45:24;;;;;;;2.60;1.25;;;29.10;34.40;;;;;;5002930;28;20161;-78
2021/06/01 17:47:58;;;;;;;3.25;1.20;;;29.10;34.70;;;;;;5010825;28;20066;-77
2021/06/01 17:50:25;;;;;;;3.08;1.20;;;29.00;34.80;;;;;;5010172;28;20050;-76
2021/06/01 17:52:55;;;;;;;4.07;2.00;;;29.00;34.20;;;;;;5010146;28;20089;-77
2021/06/01 17:55:24;;;;;;;6.72;3.67;;;28.90;34.60;;;;;;5010554;28;20162;-77
2021/06/01 17:57:51;;;;;;;5.70;3.35;;;28.80;35.00;;;;;;5010540;28;20129;-78
2021/06/01 18:00:21;;;;;;;5.82;2.60;;;28.70;34.70;;;;;;5010218;28;20049;-78
2021/06/01 18:02:48;;;;;;;3.00;1.60;;;28.60;34.60;;;;;;5008956;28;20408;-80
2021/06/01 18:05:20;;;;;;;3.03;1.40;;;28.40;34.90;;;;;;5010055;28;20133;-80
2021/06/01 18:07:55;;;;;;;3.65;1.25;;;28.20;35.50;;;;;;5010239;28;20376;-80
2021/06/01 19:26:11;;;;;;;3.80;1.65;;;25.10;40.50;;;;;;5009857;28;20046;-78
2021/06/01 19:29:04;;;;;;;3.13;1.60;;;24.90;40.90;;;;;;5004548;28;20549;-78
2021/06/01 19:50:55;;;;;;;3.17;1.67;;;23.60;44.30;;;;;;5014443;28;20172;-77
2021/06/01 19:53:23;;;;;;;3.75;1.50;;;23.40;44.60;;;;;;5015418;28;20050;-77
2021/06/01 19:55:49;;;;;;;4.25;1.70;;;23.20;45.00;;;;;;5014027;28;20080;-78
2021/06/01 19:58:17;;;;;;;3.85;1.50;;;23.10;45.30;;;;;;5014718;28;20131;-78
2021/06/01 20:00:45;;;;;;;3.42;1.58;;;23.00;45.70;;;;;;5014491;28;20196;-78
2021/06/01 20:03:11;;;;;;;3.35;1.50;;;22.80;45.70;;;;;;5014748;28;20518;-78
2021/06/01 20:05:39;;;;;;;3.03;1.52;;;22.70;45.80;;;;;;5013789;28;20077;-76
2021/06/01 20:08:07;;;;;;;3.00;1.50;;;22.60;45.90;;;;;;5013566;28;20053;-79
2021/06/01 20:10:35;;;;;;;3.75;1.50;;;22.40;46.30;;;;;;5013192;28;20166;-78
2021/06/01 20:13:02;;;;;;;2.80;1.58;;;22.20;46.80;;;;;;5012191;28;20084;-78
2021/06/01 20:15:33;;;;;;;3.30;1.70;;;22.10;47.10;;;;;;5011645;28;20106;-76
2021/06/01 20:18:04;;;;;;;5.07;1.60;;;21.90;47.50;;;;;;5011157;28;20050;-79
2021/06/01 20:20:33;;;;;;;3.92;2.00;;;21.80;48.10;;;;;;5003042;28;20049;-77
2021/06/01 20:23:04;;;;;;;3.72;1.60;;;21.60;48.10;;;;;;5010317;28;20495;-78
